createdAt,value
2023-05-07T00:00:38.198Z,78.69
2023-05-07T00:03:06.589Z,78.35
2023-05-07T00:05:34.405Z,77.64
2023-05-07T00:08:02.086Z,79.67
2023-05-07T00:10:30.089Z,79.92
2023-05-07T00:12:58.148Z,80.44
2023-05-07T00:15:25.767Z,80.66
2023-05-07T00:17:54.985Z,80.11
2023-05-07T00:20:22.682Z,80.26
2023-05-07T00:22:50.179Z,81.52
2023-05-07T00:25:17.727Z,83.11
2023-05-07T00:27:45.192Z,81.63
2023-05-07T00:30:13.174Z,81.06
2023-05-07T00:32:41.183Z,81.25
2023-05-07T00:35:09.262Z,81.66
2023-05-07T00:37:37.145Z,82.21
2023-05-07T00:40:08.322Z,82.14
2023-05-07T00:42:36.329Z,82.64
2023-05-07T00:45:04.156Z,84.15
2023-05-07T00:47:32.562Z,83.59
2023-05-07T00:50:00.652Z,82.22
2023-05-07T00:52:28.911Z,82.45
2023-05-07T00:54:56.684Z,84.00
2023-05-07T00:57:25.390Z,83.86
2023-05-07T00:59:53.307Z,83.22
2023-05-07T01:02:20.781Z,83.94
2023-05-07T01:04:48.358Z,85.13
2023-05-07T01:07:16.897Z,85.19
2023-05-07T01:09:45.801Z,85.64
2023-05-07T01:12:14.304Z,85.12
2023-05-07T01:14:42.398Z,85.29
2023-05-07T01:17:10.221Z,85.31
2023-05-07T01:19:37.777Z,85.95
2023-05-07T01:22:09.942Z,86.06
2023-05-07T01:24:47.480Z,85.41
2023-05-07T01:27:16.305Z,87.12
2023-05-07T01:29:44.379Z,87.95
2023-05-07T01:32:14.182Z,86.59
2023-05-07T01:34:42.186Z,87.14
2023-05-07T01:37:09.974Z,87.35
2023-05-07T01:39:40.919Z,87.01
2023-05-07T01:42:08.537Z,87.98
2023-05-07T01:44:36.180Z,88.24
2023-05-07T01:47:04.453Z,88.56
2023-05-07T01:49:32.272Z,87.88
2023-05-07T01:52:00.286Z,89.34
2023-05-07T01:54:31.739Z,87.88
2023-05-07T01:57:00.195Z,86.41
2023-05-07T01:59:27.920Z,86.68
2023-05-07T02:01:55.602Z,87.55
2023-05-07T02:04:23.382Z,87.42
2023-05-07T02:06:52.128Z,88.75
2023-05-07T02:09:19.815Z,89.15
2023-05-07T02:11:49.705Z,89.15
2023-05-07T02:14:18.987Z,89.90
2023-05-07T02:16:46.618Z,90.23
2023-05-07T02:19:15.696Z,90.48
2023-05-07T02:21:43.191Z,91.48
2023-05-07T02:24:10.706Z,91.06
2023-05-07T02:26:38.234Z,90.67
2023-05-07T02:29:05.749Z,91.46
2023-05-07T02:31:37.648Z,92.67
2023-05-07T02:34:05.224Z,92.99
2023-05-07T02:36:33.550Z,93.03
2023-05-07T02:39:06.695Z,91.39
2023-05-07T02:41:34.326Z,92.03
2023-05-07T02:44:01.758Z,91.67
2023-05-07T02:46:29.753Z,92.10
2023-05-07T02:49:02.505Z,94.31
2023-05-07T02:51:31.749Z,95.20
2023-05-07T02:54:02.294Z,96.18
2023-05-07T02:56:31.358Z,95.70
2023-05-07T02:58:59.592Z,95.61
2023-05-07T03:01:31.427Z,95.51
2023-05-07T03:04:03.468Z,96.37
2023-05-07T03:06:31.408Z,95.36
2023-05-07T03:08:58.865Z,95.62
2023-05-07T03:11:26.850Z,93.88
2023-05-07T03:13:54.562Z,94.56
2023-05-07T03:16:23.189Z,95.75
2023-05-07T03:18:50.944Z,93.04
2023-05-07T03:21:18.486Z,92.63
2023-05-07T03:23:46.287Z,92.60
2023-05-07T03:26:14.334Z,92.09
2023-05-07T03:28:42.458Z,91.75
2023-05-07T03:31:13.387Z,91.10
2023-05-07T03:33:52.204Z,90.66
2023-05-07T03:36:20.422Z,91.69
2023-05-07T03:38:49.009Z,90.21
2023-05-07T03:41:20.218Z,90.90
2023-05-07T03:43:48.000Z,91.98
2023-05-07T03:46:16.057Z,91.02
2023-05-07T03:48:44.163Z,91.78
2023-05-07T03:51:14.525Z,91.43
2023-05-07T03:53:42.036Z,91.07
2023-05-07T03:56:09.614Z,90.99
2023-05-07T03:58:40.010Z,90.82
2023-05-07T04:01:10.805Z,91.39
2023-05-07T04:03:38.688Z,91.95
2023-05-07T04:06:06.879Z,90.21
2023-05-07T04:08:36.703Z,88.14
2023-05-07T04:11:05.755Z,87.00
2023-05-07T04:13:34.804Z,87.20
2023-05-07T04:16:05.305Z,87.02
2023-05-07T04:18:36.116Z,85.61
2023-05-07T04:21:03.753Z,85.68
2023-05-07T04:23:33.765Z,83.07
2023-05-07T04:26:04.424Z,83.86
2023-05-07T04:28:37.434Z,84.96
2023-05-07T04:31:05.347Z,83.64
2023-05-07T04:33:34.949Z,79.34
2023-05-07T04:36:04.206Z,80.51
2023-05-07T04:38:34.762Z,79.65
2023-05-07T04:41:05.265Z,78.65
2023-05-07T04:43:35.547Z,77.70
2023-05-07T04:46:03.439Z,76.24
2023-05-07T04:48:31.568Z,73.55
2023-05-07T04:51:00.560Z,75.57
2023-05-07T04:53:28.119Z,74.42
2023-05-07T04:55:58.312Z,72.90
2023-05-07T04:58:32.893Z,72.83
2023-05-07T05:01:01.555Z,73.07
2023-05-07T05:03:31.187Z,71.32
2023-05-07T05:06:00.861Z,73.17
2023-05-07T05:08:32.178Z,74.83
2023-05-07T05:11:03.339Z,72.07
2023-05-07T05:13:32.131Z,71.00
2023-05-07T05:16:01.112Z,70.43
2023-05-07T05:18:30.734Z,67.25
2023-05-07T05:20:58.193Z,66.71
2023-05-07T05:23:25.694Z,66.48
2023-05-07T05:25:59.570Z,66.88
2023-05-07T05:28:30.162Z,65.33
2023-05-07T05:30:58.022Z,64.80
2023-05-07T05:33:27.496Z,61.59
2023-05-07T05:35:57.529Z,58.81
2023-05-07T05:38:25.065Z,58.87
2023-05-07T05:40:53.842Z,58.54
2023-05-07T05:43:23.048Z,58.61
2023-05-07T05:45:50.630Z,58.15
2023-05-07T05:48:18.599Z,58.48
2023-05-07T05:50:46.191Z,57.49
2023-05-07T05:53:15.256Z,58.21
2023-05-07T05:55:43.439Z,57.80
2023-05-07T05:58:11.476Z,58.16
2023-05-07T06:00:43.055Z,58.63
2023-05-07T06:03:11.612Z,56.83
2023-05-07T06:05:39.824Z,56.65
2023-05-07T06:08:07.428Z,56.08
2023-05-07T06:10:38.234Z,55.54
2023-05-07T06:13:07.832Z,55.92
2023-05-07T06:15:38.011Z,57.18
2023-05-07T06:18:10.577Z,54.85
2023-05-07T06:20:38.227Z,55.07
2023-05-07T06:23:10.437Z,54.17
2023-05-07T06:25:38.340Z,54.68
2023-05-07T06:28:07.471Z,54.70
2023-05-07T06:30:38.559Z,54.56
2023-05-07T06:33:06.164Z,54.31
2023-05-07T06:35:33.762Z,54.36
2023-05-07T06:38:01.833Z,55.10
2023-05-07T06:40:31.044Z,54.76
2023-05-07T06:43:00.900Z,53.74
2023-05-07T06:45:48.042Z,55.92
2023-05-07T06:48:16.037Z,56.00
2023-05-07T06:50:58.587Z,53.54
2023-05-07T06:53:27.614Z,53.13
2023-05-07T06:55:56.440Z,53.18
2023-05-07T06:58:24.610Z,55.28
2023-05-07T07:00:52.219Z,53.59
2023-05-07T07:03:21.287Z,54.25
2023-05-07T07:05:53.226Z,52.67
2023-05-07T07:08:24.889Z,53.17
2023-05-07T07:10:53.129Z,53.51
2023-05-07T07:13:20.846Z,53.01
2023-05-07T07:15:48.801Z,52.20
2023-05-07T07:18:16.518Z,51.82
2023-05-07T07:20:45.670Z,52.81
2023-05-07T07:23:15.333Z,53.19
2023-05-07T07:25:42.880Z,52.32
2023-05-07T07:28:11.834Z,52.27
2023-05-07T07:30:40.723Z,50.90
2023-05-07T07:33:08.277Z,52.83
2023-05-07T07:35:38.383Z,52.09
2023-05-07T07:38:07.244Z,50.78
2023-05-07T07:40:36.679Z,50.69
2023-05-07T07:43:05.990Z,50.63
2023-05-07T07:45:34.139Z,49.06
2023-05-07T07:48:02.664Z,49.07
2023-05-07T07:50:43.712Z,49.29
2023-05-07T07:53:14.337Z,49.33
2023-05-07T07:55:42.113Z,50.53
2023-05-07T07:58:11.511Z,50.57
2023-05-07T08:00:39.019Z,49.02
2023-05-07T08:03:08.535Z,49.18
2023-05-07T08:05:39.818Z,48.23
2023-05-07T08:08:09.318Z,48.42
2023-05-07T08:10:40.330Z,47.57
2023-05-07T08:13:15.601Z,47.39
2023-05-07T08:15:43.876Z,47.03
2023-05-07T08:18:12.730Z,46.25
2023-05-07T08:20:41.001Z,47.10
2023-05-07T08:23:12.236Z,47.56
2023-05-07T08:25:41.476Z,45.88
2023-05-07T08:28:10.217Z,45.77
2023-05-07T08:30:39.400Z,45.51
2023-05-07T08:33:07.766Z,45.96
2023-05-07T08:35:35.549Z,46.26
2023-05-07T08:38:03.622Z,45.39
2023-05-07T08:40:40.370Z,45.67
2023-05-07T08:43:15.942Z,44.93
2023-05-07T08:45:46.857Z,45.52
2023-05-07T08:48:18.008Z,45.23
2023-05-07T08:50:52.790Z,46.01
2023-05-07T08:53:21.749Z,44.13
2023-05-07T08:55:50.249Z,43.01
2023-05-07T08:58:18.306Z,42.76
2023-05-07T09:00:46.037Z,42.67
2023-05-07T09:03:13.945Z,43.30
2023-05-07T09:05:45.789Z,44.14
2023-05-07T09:08:17.254Z,44.55
2023-05-07T09:10:49.564Z,44.51
2023-05-07T09:13:19.437Z,42.25
2023-05-07T09:15:47.667Z,40.61
2023-05-07T09:18:16.956Z,41.83
2023-05-07T09:20:46.600Z,43.13
2023-05-07T09:23:15.224Z,43.02
2023-05-07T09:25:44.138Z,41.78
2023-05-07T09:28:18.512Z,41.39
2023-05-07T09:30:46.572Z,41.77
2023-05-07T09:33:16.384Z,41.19
2023-05-07T09:35:52.507Z,42.07
2023-05-07T09:38:23.435Z,40.49
2023-05-07T09:41:07.335Z,42.38
2023-05-07T09:43:41.476Z,42.89
2023-05-07T09:46:16.146Z,39.49
2023-05-07T09:48:50.714Z,41.52
2023-05-07T09:51:28.121Z,41.45
2023-05-07T09:53:58.714Z,41.12
2023-05-07T09:56:26.866Z,41.40
2023-05-07T09:58:57.241Z,39.98
2023-05-07T10:01:27.017Z,39.41
2023-05-07T10:03:55.813Z,39.28
2023-05-07T10:06:25.438Z,39.01
2023-05-07T10:08:54.372Z,37.51
2023-05-07T10:11:23.230Z,37.77
2023-05-07T10:13:53.459Z,37.56
2023-05-07T10:16:24.607Z,35.61
2023-05-07T10:18:52.812Z,35.88
2023-05-07T10:21:24.872Z,37.78
2023-05-07T10:24:15.706Z,36.84
2023-05-07T10:26:46.671Z,35.85
2023-05-07T10:29:35.850Z,35.99
2023-05-07T10:32:07.768Z,36.02
2023-05-07T10:34:40.314Z,36.05
2023-05-07T10:37:09.711Z,35.71
2023-05-07T10:39:38.346Z,37.45
2023-05-07T10:42:10.628Z,36.79
2023-05-07T10:44:40.032Z,36.50
2023-05-07T10:47:14.603Z,34.94
2023-05-07T10:49:46.017Z,34.55
2023-05-07T10:52:27.169Z,34.72
2023-05-07T10:55:21.120Z,34.06
2023-05-07T10:58:31.884Z,33.92
2023-05-07T11:01:52.870Z,33.83
2023-05-07T11:04:28.561Z,33.97
2023-05-07T11:07:26.584Z,35.33
2023-05-07T11:09:59.577Z,33.93
2023-05-07T11:12:43.961Z,33.24
2023-05-07T11:15:40.240Z,34.48
2023-05-07T11:18:49.128Z,34.32
2023-05-07T11:21:38.159Z,33.17
2023-05-07T11:24:17.804Z,32.71
2023-05-07T11:26:59.565Z,33.15
2023-05-07T11:29:29.996Z,32.50
2023-05-07T11:32:05.170Z,32.65
2023-05-07T11:34:39.516Z,33.34
2023-05-07T11:37:07.304Z,33.76
2023-05-07T11:40:09.007Z,33.65
2023-05-07T11:42:39.363Z,33.73
2023-05-07T11:45:08.572Z,33.20
2023-05-07T11:47:36.506Z,33.83
2023-05-07T11:50:09.207Z,33.77
2023-05-07T11:52:37.963Z,34.19
2023-05-07T11:55:05.961Z,32.56
2023-05-07T11:57:35.573Z,32.51
2023-05-07T12:00:05.711Z,32.65
2023-05-07T12:02:43.298Z,32.11
2023-05-07T12:05:11.263Z,33.33
2023-05-07T12:07:39.695Z,32.08
2023-05-07T12:10:07.929Z,32.41
2023-05-07T12:12:45.462Z,32.42
2023-05-07T12:15:17.020Z,32.62
2023-05-07T12:17:48.351Z,33.70
2023-05-07T12:20:16.312Z,33.48
2023-05-07T12:22:44.362Z,32.39
2023-05-07T12:25:12.210Z,33.79
2023-05-07T12:27:42.417Z,32.98
2023-05-07T12:30:11.148Z,32.07
2023-05-07T12:32:38.972Z,32.59
2023-05-07T12:35:07.774Z,31.16
2023-05-07T12:37:36.894Z,31.44
2023-05-07T12:40:10.259Z,31.71
2023-05-07T12:42:39.600Z,31.72
2023-05-07T12:45:11.753Z,32.58
2023-05-07T12:47:40.102Z,34.42
2023-05-07T12:50:08.255Z,32.63
2023-05-07T12:52:36.222Z,31.72
2023-05-07T12:55:07.909Z,32.20
2023-05-07T12:57:54.555Z,32.29
2023-05-07T13:00:38.890Z,33.13
2023-05-07T13:03:06.740Z,32.02
2023-05-07T13:05:34.891Z,32.26
2023-05-07T13:08:02.654Z,32.91
2023-05-07T13:10:30.354Z,32.68
2023-05-07T13:12:58.007Z,31.28
2023-05-07T13:15:25.610Z,32.28
2023-05-07T13:17:53.411Z,31.67
2023-05-07T13:20:20.932Z,32.32
2023-05-07T13:22:48.650Z,32.17
2023-05-07T13:25:16.534Z,32.83
2023-05-07T13:27:44.213Z,33.07
2023-05-07T13:30:11.825Z,32.19
2023-05-07T13:32:39.465Z,32.17
2023-05-07T13:35:07.796Z,33.92
2023-05-07T13:37:35.602Z,32.26
2023-05-07T13:40:03.528Z,32.21
2023-05-07T13:42:32.267Z,30.34
2023-05-07T13:44:59.789Z,31.35
2023-05-07T13:47:27.836Z,30.63
2023-05-07T13:49:55.476Z,31.04
2023-05-07T13:52:23.017Z,31.29
2023-05-07T13:54:50.677Z,31.08
2023-05-07T13:57:18.302Z,30.57
2023-05-07T13:59:46.083Z,31.65
2023-05-07T14:02:13.725Z,31.13
2023-05-07T14:04:41.224Z,31.01
2023-05-07T14:07:08.769Z,29.99
2023-05-07T14:09:36.257Z,30.64
2023-05-07T14:12:04.131Z,30.34
2023-05-07T14:14:32.195Z,30.61
2023-05-07T14:16:59.744Z,31.25
2023-05-07T14:19:27.350Z,31.06
2023-05-07T14:21:55.286Z,31.52
2023-05-07T14:24:37.082Z,31.44
2023-05-07T14:27:06.898Z,32.59
2023-05-07T14:29:36.553Z,31.82
2023-05-07T14:32:04.324Z,31.19
2023-05-07T14:34:32.383Z,30.59
2023-05-07T14:37:01.008Z,29.99
2023-05-07T14:39:28.848Z,30.67
2023-05-07T14:41:57.111Z,31.60
2023-05-07T14:44:24.666Z,31.41
2023-05-07T14:46:53.016Z,31.30
2023-05-07T14:49:21.158Z,30.33
2023-05-07T14:51:48.809Z,30.00
2023-05-07T14:54:16.825Z,30.33
2023-05-07T14:56:44.467Z,31.34
2023-05-07T14:59:12.377Z,30.29
2023-05-07T15:01:43.707Z,30.04
2023-05-07T15:04:11.479Z,30.30
2023-05-07T15:06:39.613Z,28.63
2023-05-07T15:09:07.145Z,28.16
2023-05-07T15:11:35.458Z,28.54
2023-05-07T15:14:04.709Z,28.78
2023-05-07T15:16:33.828Z,28.14
2023-05-07T15:19:01.535Z,27.85
2023-05-07T15:21:29.060Z,27.79
2023-05-07T15:23:56.832Z,27.24
2023-05-07T15:26:24.334Z,27.15
2023-05-07T15:28:51.812Z,27.06
2023-05-07T15:31:19.304Z,27.05
2023-05-07T15:33:50.934Z,27.29
2023-05-07T15:36:19.240Z,27.14
2023-05-07T15:38:46.777Z,28.15
2023-05-07T15:41:14.414Z,27.47
2023-05-07T15:43:48.569Z,28.04
2023-05-07T15:46:21.076Z,28.28
2023-05-07T15:48:48.882Z,28.72
2023-05-07T15:51:18.012Z,28.18
2023-05-07T15:53:45.852Z,28.19
2023-05-07T15:56:13.393Z,29.30
2023-05-07T15:58:40.953Z,30.76
2023-05-07T16:01:08.770Z,31.63
2023-05-07T16:03:36.821Z,31.58
2023-05-07T16:06:05.172Z,32.37
2023-05-07T16:08:33.999Z,32.97
2023-05-07T16:11:01.516Z,32.61
2023-05-07T16:13:29.117Z,34.22
2023-05-07T16:15:58.633Z,34.69
2023-05-07T16:18:26.250Z,34.48
2023-05-07T16:20:58.091Z,33.83
2023-05-07T16:23:25.863Z,33.45
2023-05-07T16:25:53.397Z,34.19
2023-05-07T16:28:21.528Z,34.87
2023-05-07T16:30:50.367Z,34.95
2023-05-07T16:33:18.397Z,34.95
2023-05-07T16:35:52.053Z,34.84
2023-05-07T16:38:19.926Z,35.01
2023-05-07T16:40:47.588Z,34.90
2023-05-07T16:43:15.444Z,35.82
2023-05-07T16:45:43.009Z,36.03
2023-05-07T16:48:10.753Z,36.56
2023-05-07T16:50:38.632Z,36.19
2023-05-07T16:53:07.374Z,37.11
2023-05-07T16:55:40.127Z,37.43
2023-05-07T16:58:09.435Z,37.13
2023-05-07T17:00:49.221Z,36.83
2023-05-07T17:03:18.464Z,36.61
2023-05-07T17:05:46.838Z,37.23
2023-05-07T17:08:14.656Z,36.68
2023-05-07T17:10:42.517Z,36.72
2023-05-07T17:13:10.114Z,37.31
2023-05-07T17:15:37.871Z,37.67
2023-05-07T17:18:05.847Z,39.24
2023-05-07T17:20:34.770Z,39.98
2023-05-07T17:23:02.207Z,39.66
2023-05-07T17:25:32.396Z,39.64
2023-05-07T17:28:00.008Z,39.98
2023-05-07T17:30:27.552Z,39.96
2023-05-07T17:33:03.815Z,40.32
2023-05-07T17:35:37.203Z,40.74
2023-05-07T17:38:04.857Z,40.98
2023-05-07T17:40:33.293Z,39.90
2023-05-07T17:43:01.936Z,39.96
2023-05-07T17:45:29.737Z,40.25
2023-05-07T17:47:57.203Z,40.49
2023-05-07T17:50:24.999Z,39.83
2023-05-07T17:52:52.540Z,40.87
2023-05-07T17:55:20.249Z,41.38
2023-05-07T17:57:47.986Z,40.53
2023-05-07T18:00:16.258Z,40.69
2023-05-07T18:02:43.938Z,41.22
2023-05-07T18:05:11.640Z,41.52
2023-05-07T18:07:39.889Z,41.31
2023-05-07T18:10:08.012Z,41.69
2023-05-07T18:12:36.004Z,43.14
2023-05-07T18:15:03.990Z,41.97
2023-05-07T18:17:32.043Z,42.73
2023-05-07T18:19:59.918Z,42.79
2023-05-07T18:22:27.836Z,43.77
2023-05-07T18:24:56.043Z,43.63
2023-05-07T18:27:23.822Z,42.31
2023-05-07T18:29:51.651Z,42.66
2023-05-07T18:32:19.366Z,42.01
2023-05-07T18:34:47.036Z,42.70
2023-05-07T18:37:15.615Z,43.00
2023-05-07T18:39:46.444Z,43.80
2023-05-07T18:42:14.107Z,43.79
2023-05-07T18:44:44.521Z,43.20
2023-05-07T18:47:13.913Z,43.69
2023-05-07T18:49:41.576Z,43.94
2023-05-07T18:52:09.160Z,43.03
2023-05-07T18:54:36.760Z,43.96
2023-05-07T18:57:04.261Z,44.11
2023-05-07T18:59:31.771Z,44.45
2023-05-07T19:01:59.435Z,43.61
2023-05-07T19:04:27.107Z,44.46
2023-05-07T19:06:54.649Z,45.21
2023-05-07T19:09:22.126Z,45.33
2023-05-07T19:11:49.848Z,43.83
2023-05-07T19:14:17.716Z,44.66
2023-05-07T19:16:45.254Z,43.40
2023-05-07T19:19:12.709Z,43.85
2023-05-07T19:21:40.388Z,44.27
2023-05-07T19:24:08.351Z,44.06
2023-05-07T19:26:35.979Z,44.03
2023-05-07T19:29:16.407Z,43.79
2023-05-07T19:31:45.541Z,44.98
2023-05-07T19:34:16.439Z,45.19
2023-05-07T19:36:44.276Z,45.08
2023-05-07T19:39:12.001Z,44.72
2023-05-07T19:41:39.633Z,44.96
2023-05-07T19:44:07.366Z,45.79
2023-05-07T19:46:34.987Z,45.68
2023-05-07T19:49:02.563Z,45.92
2023-05-07T19:51:32.517Z,45.42
2023-05-07T19:54:00.288Z,45.64
2023-05-07T19:56:27.944Z,45.28
2023-05-07T19:58:55.472Z,45.44
2023-05-07T20:01:23.067Z,45.39
2023-05-07T20:03:50.704Z,45.00
2023-05-07T20:06:18.331Z,44.97
2023-05-07T20:08:46.015Z,45.26
2023-05-07T20:11:14.496Z,45.71
2023-05-07T20:13:45.180Z,45.07
2023-05-07T20:16:12.919Z,45.24
2023-05-07T20:18:40.786Z,45.52
2023-05-07T20:21:08.314Z,46.22
2023-05-07T20:23:35.853Z,46.26
2023-05-07T20:26:03.534Z,46.29
2023-05-07T20:28:31.124Z,46.13
2023-05-07T20:30:58.697Z,45.09
2023-05-07T20:33:27.121Z,45.15
2023-05-07T20:35:54.972Z,45.48
2023-05-07T20:38:22.526Z,45.71
2023-05-07T20:40:50.148Z,46.46
2023-05-07T20:43:18.820Z,46.63
2023-05-07T20:45:46.352Z,46.30
2023-05-07T20:48:14.714Z,45.75
2023-05-07T20:50:42.338Z,45.69
2023-05-07T20:53:09.808Z,46.54
2023-05-07T20:55:37.820Z,47.39
2023-05-07T20:58:05.488Z,46.84
2023-05-07T21:00:33.091Z,47.08
2023-05-07T21:03:00.803Z,47.39
2023-05-07T21:05:28.779Z,47.35
2023-05-07T21:07:56.678Z,47.23
2023-05-07T21:10:24.373Z,46.96
2023-05-07T21:12:51.921Z,47.34
2023-05-07T21:15:19.550Z,48.42
2023-05-07T21:17:47.514Z,49.21
2023-05-07T21:20:15.665Z,48.83
2023-05-07T21:22:43.428Z,48.56
2023-05-07T21:25:13.322Z,49.35
2023-05-07T21:27:41.404Z,49.38
2023-05-07T21:30:09.369Z,49.33
2023-05-07T21:32:37.273Z,49.87
2023-05-07T21:35:05.424Z,49.77
2023-05-07T21:37:33.788Z,49.85
2023-05-07T21:40:01.517Z,49.94
2023-05-07T21:42:29.191Z,50.05
2023-05-07T21:44:56.889Z,50.50
2023-05-07T21:47:24.489Z,49.91
2023-05-07T21:49:52.033Z,49.35
2023-05-07T21:52:20.798Z,49.74
2023-05-07T21:54:52.325Z,49.96
2023-05-07T21:57:20.192Z,51.01
2023-05-07T21:59:47.787Z,50.51
2023-05-07T22:02:15.321Z,50.87
2023-05-07T22:04:43.488Z,50.75
2023-05-07T22:07:11.022Z,50.36
2023-05-07T22:09:38.486Z,50.47
2023-05-07T22:12:09.104Z,50.93
2023-05-07T22:14:36.727Z,51.62
2023-05-07T22:17:04.210Z,51.68
2023-05-07T22:19:31.850Z,51.42
2023-05-07T22:21:59.682Z,51.64
2023-05-07T22:24:27.322Z,52.89
2023-05-07T22:26:54.844Z,52.13
2023-05-07T22:29:23.581Z,51.92
2023-05-07T22:31:51.109Z,53.01
2023-05-07T22:34:18.730Z,52.71
2023-05-07T22:36:46.879Z,52.70
2023-05-07T22:39:14.340Z,52.97
2023-05-07T22:41:41.964Z,52.44
2023-05-07T22:44:09.512Z,52.22
2023-05-07T22:46:37.215Z,51.71
2023-05-07T22:49:05.005Z,52.62
2023-05-07T22:51:32.908Z,52.69
2023-05-07T22:54:00.525Z,52.57
2023-05-07T22:56:28.177Z,52.40
2023-05-07T22:58:55.909Z,52.33
2023-05-07T23:01:23.418Z,53.10
2023-05-07T23:03:51.110Z,53.03
2023-05-07T23:06:18.836Z,53.00
2023-05-07T23:08:46.358Z,52.69
2023-05-07T23:11:13.924Z,53.11
2023-05-07T23:13:41.373Z,53.99
2023-05-07T23:16:09.148Z,53.55
2023-05-07T23:18:36.703Z,54.11
2023-05-07T23:21:04.325Z,54.19
2023-05-07T23:23:34.845Z,54.29
2023-05-07T23:26:02.542Z,54.48
2023-05-07T23:28:30.769Z,55.13
2023-05-07T23:30:58.383Z,53.67
2023-05-07T23:33:25.885Z,54.18
2023-05-07T23:36:04.765Z,54.92
2023-05-07T23:38:33.531Z,54.40
2023-05-07T23:41:01.098Z,54.52
2023-05-07T23:43:29.190Z,54.50
2023-05-07T23:45:56.885Z,54.05
2023-05-07T23:48:24.487Z,54.39
2023-05-07T23:50:52.056Z,54.33
2023-05-07T23:53:19.758Z,54.93
2023-05-07T23:55:47.313Z,54.77
2023-05-07T23:58:14.846Z,54.24
